sensor_id;sensor_type;location;lat;lon;timestamp;temperature;humidity
23755;DHT22;12057;52.042;6.830;2022-11-12T00:04:56;5.50;99.90
23755;DHT22;12057;52.042;6.830;2022-11-12T00:09:56;5.50;99.90
23755;DHT22;12057;52.042;6.830;2022-11-12T00:14:57;5.50;99.90
23755;DHT22;12057;52.042;6.830;2022-11-12T00:20:01;5.50;99.90
23755;DHT22;12057;52.042;6.830;2022-11-12T00:25:02;5.40;99.90
23755;DHT22;12057;52.042;6.830;2022-11-12T00:30:03;5.40;99.90
23755;DHT22;12057;52.042;6.830;2022-11-12T00:35:05;5.30;99.90
23755;DHT22;12057;52.042;6.830;2022-11-12T00:40:07;5.20;99.90
23755;DHT22;12057;52.042;6.830;2022-11-12T00:45:08;5.20;99.90
23755;DHT22;12057;52.042;6.830;2022-11-12T00:50:09;5.40;99.90
23755;DHT22;12057;52.042;6.830;2022-11-12T00:55:10;5.00;99.90
23755;DHT22;12057;52.042;6.830;2022-11-12T01:00:15;5.00;99.90
23755;DHT22;12057;52.042;6.830;2022-11-12T01:05:16;5.00;99.90
23755;DHT22;12057;52.042;6.830;2022-11-12T01:10:17;5.00;99.90
23755;DHT22;12057;52.042;6.830;2022-11-12T01:15:17;4.90;99.90
23755;DHT22;12057;52.042;6.830;2022-11-12T01:20:18;4.80;99.90
23755;DHT22;12057;52.042;6.830;2022-11-12T01:25:19;4.80;99.90
23755;DHT22;12057;52.042;6.830;2022-11-12T01:30:19;4.70;99.90
23755;DHT22;12057;52.042;6.830;2022-11-12T01:35:20;4.70;99.90
23755;DHT22;12057;52.042;6.830;2022-11-12T01:40:21;4.70;99.90
23755;DHT22;12057;52.042;6.830;2022-11-12T01:45:22;4.70;99.90
23755;DHT22;12057;52.042;6.830;2022-11-12T01:50:33;4.70;99.90
23755;DHT22;12057;52.042;6.830;2022-11-12T01:55:36;4.60;99.90
23755;DHT22;12057;52.042;6.830;2022-11-12T02:00:38;4.60;99.90
23755;DHT22;12057;52.042;6.830;2022-11-12T02:05:40;4.50;99.90
23755;DHT22;12057;52.042;6.830;2022-11-12T02:10:41;4.50;99.90
23755;DHT22;12057;52.042;6.830;2022-11-12T02:15:42;4.50;99.90
23755;DHT22;12057;52.042;6.830;2022-11-12T02:20:42;4.50;99.90
23755;DHT22;12057;52.042;6.830;2022-11-12T02:25:43;4.40;99.90
23755;DHT22;12057;52.042;6.830;2022-11-12T02:30:48;4.40;99.90
23755;DHT22;12057;52.042;6.830;2022-11-12T02:35:49;4.40;99.90
23755;DHT22;12057;52.042;6.830;2022-11-12T02:40:50;4.50;99.90
23755;DHT22;12057;52.042;6.830;2022-11-12T02:45:51;4.50;99.90
23755;DHT22;12057;52.042;6.830;2022-11-12T02:50:52;4.60;99.90
23755;DHT22;12057;52.042;6.830;2022-11-12T02:55:52;4.60;99.90
23755;DHT22;12057;52.042;6.830;2022-11-12T03:00:54;4.60;99.90
23755;DHT22;12057;52.042;6.830;2022-11-12T03:05:57;4.60;99.90
23755;DHT22;12057;52.042;6.830;2022-11-12T03:10:58;4.60;99.90
23755;DHT22;12057;52.042;6.830;2022-11-12T03:16:05;4.60;99.90
23755;DHT22;12057;52.042;6.830;2022-11-12T03:21:05;4.50;99.90
23755;DHT22;12057;52.042;6.830;2022-11-12T03:26:06;4.50;99.90
23755;DHT22;12057;52.042;6.830;2022-11-12T03:31:07;4.50;99.90
23755;DHT22;12057;52.042;6.830;2022-11-12T03:36:07;4.50;99.90
23755;DHT22;12057;52.042;6.830;2022-11-12T03:41:08;4.50;99.90
23755;DHT22;12057;52.042;6.830;2022-11-12T03:46:09;4.50;99.90
23755;DHT22;12057;52.042;6.830;2022-11-12T03:51:10;4.40;99.90
23755;DHT22;12057;52.042;6.830;2022-11-12T03:56:15;4.40;99.90
23755;DHT22;12057;52.042;6.830;2022-11-12T04:01:16;4.30;99.90
23755;DHT22;12057;52.042;6.830;2022-11-12T04:06:16;4.30;99.90
23755;DHT22;12057;52.042;6.830;2022-11-12T04:11:36;4.30;99.90
23755;DHT22;12057;52.042;6.830;2022-11-12T04:16:36;4.30;99.90
23755;DHT22;12057;52.042;6.830;2022-11-12T04:22:09;4.40;99.90
23755;DHT22;12057;52.042;6.830;2022-11-12T04:27:31;4.40;99.90
23755;DHT22;12057;52.042;6.830;2022-11-12T04:32:34;4.60;99.90
23755;DHT22;12057;52.042;6.830;2022-11-12T04:37:36;4.70;99.90
23755;DHT22;12057;52.042;6.830;2022-11-12T04:42:46;4.90;99.90
23755;DHT22;12057;52.042;6.830;2022-11-12T04:48:05;5.10;99.90
23755;DHT22;12057;52.042;6.830;2022-11-12T04:53:06;5.10;99.90
23755;DHT22;12057;52.042;6.830;2022-11-12T04:58:08;5.20;99.90
23755;DHT22;12057;52.042;6.830;2022-11-12T05:03:09;5.30;99.90
23755;DHT22;12057;52.042;6.830;2022-11-12T05:08:09;5.30;99.90
23755;DHT22;12057;52.042;6.830;2022-11-12T05:13:10;5.30;99.90
23755;DHT22;12057;52.042;6.830;2022-11-12T05:18:11;5.30;99.90
23755;DHT22;12057;52.042;6.830;2022-11-12T05:23:11;5.20;99.90
23755;DHT22;12057;52.042;6.830;2022-11-12T05:28:12;5.20;99.90
23755;DHT22;12057;52.042;6.830;2022-11-12T05:33:13;5.10;99.90
23755;DHT22;12057;52.042;6.830;2022-11-12T05:38:14;5.00;99.90
23755;DHT22;12057;52.042;6.830;2022-11-12T05:43:14;4.90;99.90
23755;DHT22;12057;52.042;6.830;2022-11-12T05:48:15;4.80;99.90
23755;DHT22;12057;52.042;6.830;2022-11-12T05:53:16;4.70;99.90
23755;DHT22;12057;52.042;6.830;2022-11-12T05:58:17;4.70;99.90
23755;DHT22;12057;52.042;6.830;2022-11-12T06:03:21;4.60;99.90
23755;DHT22;12057;52.042;6.830;2022-11-12T06:08:22;4.60;99.90
23755;DHT22;12057;52.042;6.830;2022-11-12T06:13:24;4.70;99.90
23755;DHT22;12057;52.042;6.830;2022-11-12T06:18:24;4.60;99.90
23755;DHT22;12057;52.042;6.830;2022-11-12T06:23:25;4.50;99.90
23755;DHT22;12057;52.042;6.830;2022-11-12T06:28:26;4.40;99.90
23755;DHT22;12057;52.042;6.830;2022-11-12T06:33:27;4.40;99.90
23755;DHT22;12057;52.042;6.830;2022-11-12T06:38:35;4.40;99.90
23755;DHT22;12057;52.042;6.830;2022-11-12T06:43:37;4.30;99.90
23755;DHT22;12057;52.042;6.830;2022-11-12T06:48:37;4.30;99.90
23755;DHT22;12057;52.042;6.830;2022-11-12T06:53:38;4.20;99.90
23755;DHT22;12057;52.042;6.830;2022-11-12T06:58:39;4.20;99.90
23755;DHT22;12057;52.042;6.830;2022-11-12T07:03:41;4.20;99.90
23755;DHT22;12057;52.042;6.830;2022-11-12T07:08:43;4.20;99.90
23755;DHT22;12057;52.042;6.830;2022-11-12T07:13:45;4.20;99.90
23755;DHT22;12057;52.042;6.830;2022-11-12T07:18:47;4.30;99.90
23755;DHT22;12057;52.042;6.830;2022-11-12T07:23:48;4.40;99.90
23755;DHT22;12057;52.042;6.830;2022-11-12T07:28:50;4.50;99.90
23755;DHT22;12057;52.042;6.830;2022-11-12T07:33:51;4.60;99.90
23755;DHT22;12057;52.042;6.830;2022-11-12T07:38:53;4.70;99.90
23755;DHT22;12057;52.042;6.830;2022-11-12T07:43:53;4.90;99.90
23755;DHT22;12057;52.042;6.830;2022-11-12T07:48:54;5.10;99.90
23755;DHT22;12057;52.042;6.830;2022-11-12T07:53:57;5.30;99.90
23755;DHT22;12057;52.042;6.830;2022-11-12T07:58:59;5.60;99.90
23755;DHT22;12057;52.042;6.830;2022-11-12T08:04:01;6.00;99.90
23755;DHT22;12057;52.042;6.830;2022-11-12T08:09:05;6.20;99.90
23755;DHT22;12057;52.042;6.830;2022-11-12T08:14:06;6.60;99.90
23755;DHT22;12057;52.042;6.830;2022-11-12T08:19:06;6.80;99.90
23755;DHT22;12057;52.042;6.830;2022-11-12T08:24:07;7.10;99.90
23755;DHT22;12057;52.042;6.830;2022-11-12T08:29:08;7.30;99.90
23755;DHT22;12057;52.042;6.830;2022-11-12T08:34:09;7.60;99.90
23755;DHT22;12057;52.042;6.830;2022-11-12T08:39:12;7.80;99.90
23755;DHT22;12057;52.042;6.830;2022-11-12T08:44:13;8.10;99.90
23755;DHT22;12057;52.042;6.830;2022-11-12T08:49:13;8.30;99.90
23755;DHT22;12057;52.042;6.830;2022-11-12T08:54:14;8.50;99.90
23755;DHT22;12057;52.042;6.830;2022-11-12T08:59:15;8.80;99.90
23755;DHT22;12057;52.042;6.830;2022-11-12T09:04:15;9.00;99.90
23755;DHT22;12057;52.042;6.830;2022-11-12T09:09:16;9.20;99.90
23755;DHT22;12057;52.042;6.830;2022-11-12T09:14:17;9.40;99.90
23755;DHT22;12057;52.042;6.830;2022-11-12T09:19:17;9.50;99.90
23755;DHT22;12057;52.042;6.830;2022-11-12T09:24:18;9.80;99.90
23755;DHT22;12057;52.042;6.830;2022-11-12T09:29:19;10.10;99.90
23755;DHT22;12057;52.042;6.830;2022-11-12T09:34:20;10.50;99.90
23755;DHT22;12057;52.042;6.830;2022-11-12T09:39:20;10.70;99.90
23755;DHT22;12057;52.042;6.830;2022-11-12T09:44:21;11.00;99.90
23755;DHT22;12057;52.042;6.830;2022-11-12T09:49:31;11.30;99.90
23755;DHT22;12057;52.042;6.830;2022-11-12T09:54:34;11.50;99.90
23755;DHT22;12057;52.042;6.830;2022-11-12T09:59:40;11.90;99.90
23755;DHT22;12057;52.042;6.830;2022-11-12T10:10:30;12.30;99.90
23755;DHT22;12057;52.042;6.830;2022-11-12T10:15:42;12.60;99.90
23755;DHT22;12057;52.042;6.830;2022-11-12T10:26:32;13.20;99.90
23755;DHT22;12057;52.042;6.830;2022-11-12T10:31:34;13.60;99.90
23755;DHT22;12057;52.042;6.830;2022-11-12T10:36:35;13.80;99.90
23755;DHT22;12057;52.042;6.830;2022-11-12T10:41:37;13.90;99.90
23755;DHT22;12057;52.042;6.830;2022-11-12T10:46:42;14.00;99.90
23755;DHT22;12057;52.042;6.830;2022-11-12T10:51:54;14.20;99.90
23755;DHT22;12057;52.042;6.830;2022-11-12T10:56:55;14.60;99.90
23755;DHT22;12057;52.042;6.830;2022-11-12T11:01:58;14.50;99.90
23755;DHT22;12057;52.042;6.830;2022-11-12T11:07:15;14.80;99.90
23755;DHT22;12057;52.042;6.830;2022-11-12T11:12:29;14.70;99.90
23755;DHT22;12057;52.042;6.830;2022-11-12T11:17:30;15.00;99.90
23755;DHT22;12057;52.042;6.830;2022-11-12T11:22:38;15.20;99.90
23755;DHT22;12057;52.042;6.830;2022-11-12T11:33:24;15.50;99.90
23755;DHT22;12057;52.042;6.830;2022-11-12T11:38:34;15.50;99.90
23755;DHT22;12057;52.042;6.830;2022-11-12T11:43:57;15.60;99.90
23755;DHT22;12057;52.042;6.830;2022-11-12T11:54:59;16.20;99.90
23755;DHT22;12057;52.042;6.830;2022-11-12T12:00:21;16.30;99.90
23755;DHT22;12057;52.042;6.830;2022-11-12T12:05:41;16.50;99.90
23755;DHT22;12057;52.042;6.830;2022-11-12T12:11:05;16.00;99.90
23755;DHT22;12057;52.042;6.830;2022-11-12T12:21:29;16.30;99.90
23755;DHT22;12057;52.042;6.830;2022-11-12T12:32:13;16.30;99.90
23755;DHT22;12057;52.042;6.830;2022-11-12T12:42:21;16.70;99.90
23755;DHT22;12057;52.042;6.830;2022-11-12T12:47:28;16.90;99.90
23755;DHT22;12057;52.042;6.830;2022-11-12T12:52:57;16.90;99.90
23755;DHT22;12057;52.042;6.830;2022-11-12T12:57:57;17.00;99.90
23755;DHT22;12057;52.042;6.830;2022-11-12T13:03:05;17.60;99.90
23755;DHT22;12057;52.042;6.830;2022-11-12T13:08:11;17.80;99.90
23755;DHT22;12057;52.042;6.830;2022-11-12T13:23:52;17.90;99.90
23755;DHT22;12057;52.042;6.830;2022-11-12T13:34:37;17.30;99.90
23755;DHT22;12057;52.042;6.830;2022-11-12T13:39:38;17.10;99.90
23755;DHT22;12057;52.042;6.830;2022-11-12T13:44:40;16.90;99.90
23755;DHT22;12057;52.042;6.830;2022-11-12T13:49:43;16.40;99.90
23755;DHT22;12057;52.042;6.830;2022-11-12T13:54:45;15.80;99.90
23755;DHT22;12057;52.042;6.830;2022-11-12T13:59:46;15.50;99.90
23755;DHT22;12057;52.042;6.830;2022-11-12T14:04:47;15.30;99.90
23755;DHT22;12057;52.042;6.830;2022-11-12T14:20:42;14.50;99.90
23755;DHT22;12057;52.042;6.830;2022-11-12T14:26:00;14.40;99.90
23755;DHT22;12057;52.042;6.830;2022-11-12T14:31:03;14.20;99.90
23755;DHT22;12057;52.042;6.830;2022-11-12T14:36:14;14.10;99.90
23755;DHT22;12057;52.042;6.830;2022-11-12T14:41:17;14.00;99.90
23755;DHT22;12057;52.042;6.830;2022-11-12T14:46:37;13.90;99.90
23755;DHT22;12057;52.042;6.830;2022-11-12T14:51:43;13.80;99.90
23755;DHT22;12057;52.042;6.830;2022-11-12T14:56:47;13.70;99.90
23755;DHT22;12057;52.042;6.830;2022-11-12T15:02:05;13.60;99.90
23755;DHT22;12057;52.042;6.830;2022-11-12T15:12:30;13.50;99.90
23755;DHT22;12057;52.042;6.830;2022-11-12T15:17:33;13.30;99.90
23755;DHT22;12057;52.042;6.830;2022-11-12T15:22:35;13.20;99.90
23755;DHT22;12057;52.042;6.830;2022-11-12T15:27:40;13.10;99.90
23755;DHT22;12057;52.042;6.830;2022-11-12T15:32:42;13.00;99.90
23755;DHT22;12057;52.042;6.830;2022-11-12T15:37:42;12.70;99.90
23755;DHT22;12057;52.042;6.830;2022-11-12T15:42:43;12.50;99.90
23755;DHT22;12057;52.042;6.830;2022-11-12T15:47:45;12.20;99.90
23755;DHT22;12057;52.042;6.830;2022-11-12T15:52:46;12.00;99.90
23755;DHT22;12057;52.042;6.830;2022-11-12T15:57:49;11.90;99.90
23755;DHT22;12057;52.042;6.830;2022-11-12T16:02:56;11.90;99.90
23755;DHT22;12057;52.042;6.830;2022-11-12T16:07:58;11.70;99.90
23755;DHT22;12057;52.042;6.830;2022-11-12T16:12:59;11.60;99.90
23755;DHT22;12057;52.042;6.830;2022-11-12T16:18:00;11.40;99.90
23755;DHT22;12057;52.042;6.830;2022-11-12T16:23:01;11.20;99.90
23755;DHT22;12057;52.042;6.830;2022-11-12T16:28:02;11.00;99.90
23755;DHT22;12057;52.042;6.830;2022-11-12T16:33:04;10.90;99.90
23755;DHT22;12057;52.042;6.830;2022-11-12T16:38:15;10.80;99.90
23755;DHT22;12057;52.042;6.830;2022-11-12T16:49:14;10.60;99.90
23755;DHT22;12057;52.042;6.830;2022-11-12T16:54:38;10.50;99.90
23755;DHT22;12057;52.042;6.830;2022-11-12T16:59:48;10.40;99.90
23755;DHT22;12057;52.042;6.830;2022-11-12T17:10:47;10.00;99.90
23755;DHT22;12057;52.042;6.830;2022-11-12T17:15:55;9.90;99.90
23755;DHT22;12057;52.042;6.830;2022-11-12T17:21:11;9.80;99.90
23755;DHT22;12057;52.042;6.830;2022-11-12T17:26:19;9.70;99.90
23755;DHT22;12057;52.042;6.830;2022-11-12T17:31:21;9.70;99.90
23755;DHT22;12057;52.042;6.830;2022-11-12T17:36:24;9.70;99.90
23755;DHT22;12057;52.042;6.830;2022-11-12T17:41:45;9.60;99.90
23755;DHT22;12057;52.042;6.830;2022-11-12T17:46:46;9.50;99.90
23755;DHT22;12057;52.042;6.830;2022-11-12T17:51:47;9.40;99.90
23755;DHT22;12057;52.042;6.830;2022-11-12T17:56:48;9.30;99.90
23755;DHT22;12057;52.042;6.830;2022-11-12T18:01:48;9.30;99.90
23755;DHT22;12057;52.042;6.830;2022-11-12T18:06:49;9.10;99.90
23755;DHT22;12057;52.042;6.830;2022-11-12T18:12:27;9.10;99.90
23755;DHT22;12057;52.042;6.830;2022-11-12T18:17:28;9.00;99.90
23755;DHT22;12057;52.042;6.830;2022-11-12T18:22:30;8.80;99.90
23755;DHT22;12057;52.042;6.830;2022-11-12T18:27:30;8.80;99.90
23755;DHT22;12057;52.042;6.830;2022-11-12T18:32:31;8.90;99.90
23755;DHT22;12057;52.042;6.830;2022-11-12T18:37:32;8.90;99.90
23755;DHT22;12057;52.042;6.830;2022-11-12T18:42:33;8.90;99.90
23755;DHT22;12057;52.042;6.830;2022-11-12T18:47:34;8.80;99.90
23755;DHT22;12057;52.042;6.830;2022-11-12T18:52:35;8.80;99.90
23755;DHT22;12057;52.042;6.830;2022-11-12T18:57:35;8.80;99.90
23755;DHT22;12057;52.042;6.830;2022-11-12T19:02:36;8.80;99.90
23755;DHT22;12057;52.042;6.830;2022-11-12T19:07:37;8.70;99.90
23755;DHT22;12057;52.042;6.830;2022-11-12T19:12:38;8.70;99.90
23755;DHT22;12057;52.042;6.830;2022-11-12T19:17:38;8.60;99.90
23755;DHT22;12057;52.042;6.830;2022-11-12T19:22:39;8.50;99.90
23755;DHT22;12057;52.042;6.830;2022-11-12T19:27:40;8.50;99.90
23755;DHT22;12057;52.042;6.830;2022-11-12T19:32:40;8.50;99.90
23755;DHT22;12057;52.042;6.830;2022-11-12T19:37:41;8.50;99.90
23755;DHT22;12057;52.042;6.830;2022-11-12T19:42:42;8.50;99.90
23755;DHT22;12057;52.042;6.830;2022-11-12T19:47:42;8.60;99.90
23755;DHT22;12057;52.042;6.830;2022-11-12T19:52:43;8.50;99.90
23755;DHT22;12057;52.042;6.830;2022-11-12T19:57:44;8.50;99.90
23755;DHT22;12057;52.042;6.830;2022-11-12T20:02:44;8.40;99.90
23755;DHT22;12057;52.042;6.830;2022-11-12T20:07:48;8.40;99.90
23755;DHT22;12057;52.042;6.830;2022-11-12T20:12:49;8.40;99.90
23755;DHT22;12057;52.042;6.830;2022-11-12T20:17:50;8.40;99.90
23755;DHT22;12057;52.042;6.830;2022-11-12T20:22:51;8.40;99.90
23755;DHT22;12057;52.042;6.830;2022-11-12T20:27:54;8.30;99.90
23755;DHT22;12057;52.042;6.830;2022-11-12T20:32:55;8.40;99.90
23755;DHT22;12057;52.042;6.830;2022-11-12T20:37:56;8.30;99.90
23755;DHT22;12057;52.042;6.830;2022-11-12T20:42:57;8.30;99.90
23755;DHT22;12057;52.042;6.830;2022-11-12T20:47:57;8.20;99.90
23755;DHT22;12057;52.042;6.830;2022-11-12T20:52:58;8.20;99.90
23755;DHT22;12057;52.042;6.830;2022-11-12T20:57:59;8.10;99.90
23755;DHT22;12057;52.042;6.830;2022-11-12T21:03:00;8.10;99.90
23755;DHT22;12057;52.042;6.830;2022-11-12T21:08:00;8.10;99.90
23755;DHT22;12057;52.042;6.830;2022-11-12T21:13:01;8.00;99.90
23755;DHT22;12057;52.042;6.830;2022-11-12T21:18:02;8.00;99.90
23755;DHT22;12057;52.042;6.830;2022-11-12T21:23:03;7.90;99.90
23755;DHT22;12057;52.042;6.830;2022-11-12T21:28:04;7.90;99.90
23755;DHT22;12057;52.042;6.830;2022-11-12T21:33:05;7.80;99.90
23755;DHT22;12057;52.042;6.830;2022-11-12T21:38:05;7.70;99.90
23755;DHT22;12057;52.042;6.830;2022-11-12T21:43:06;7.60;99.90
23755;DHT22;12057;52.042;6.830;2022-11-12T21:48:07;7.50;99.90
23755;DHT22;12057;52.042;6.830;2022-11-12T21:53:07;7.50;99.90
23755;DHT22;12057;52.042;6.830;2022-11-12T21:58:08;7.50;99.90
23755;DHT22;12057;52.042;6.830;2022-11-12T22:08:54;7.40;99.90
23755;DHT22;12057;52.042;6.830;2022-11-12T22:13:58;7.40;99.90
23755;DHT22;12057;52.042;6.830;2022-11-12T22:18:59;7.40;99.90
23755;DHT22;12057;52.042;6.830;2022-11-12T22:24:03;7.40;99.90
23755;DHT22;12057;52.042;6.830;2022-11-12T22:29:04;7.40;99.90
23755;DHT22;12057;52.042;6.830;2022-11-12T22:34:12;7.40;99.90
23755;DHT22;12057;52.042;6.830;2022-11-12T22:39:13;7.50;99.90
23755;DHT22;12057;52.042;6.830;2022-11-12T22:44:14;7.40;99.90
23755;DHT22;12057;52.042;6.830;2022-11-12T22:49:15;7.50;99.90
23755;DHT22;12057;52.042;6.830;2022-11-12T22:54:16;7.40;99.90
23755;DHT22;12057;52.042;6.830;2022-11-12T22:59:17;7.50;99.90
23755;DHT22;12057;52.042;6.830;2022-11-12T23:04:18;7.40;99.90
23755;DHT22;12057;52.042;6.830;2022-11-12T23:09:18;7.40;99.90
23755;DHT22;12057;52.042;6.830;2022-11-12T23:14:19;7.30;99.90
23755;DHT22;12057;52.042;6.830;2022-11-12T23:19:20;7.40;99.90
23755;DHT22;12057;52.042;6.830;2022-11-12T23:24:21;7.30;99.90
23755;DHT22;12057;52.042;6.830;2022-11-12T23:29:21;7.20;99.90
23755;DHT22;12057;52.042;6.830;2022-11-12T23:34:22;7.20;99.90
23755;DHT22;12057;52.042;6.830;2022-11-12T23:39:23;7.10;99.90
23755;DHT22;12057;52.042;6.830;2022-11-12T23:44:23;7.00;99.90
23755;DHT22;12057;52.042;6.830;2022-11-12T23:49:24;7.00;99.90
23755;DHT22;12057;52.042;6.830;2022-11-12T23:54:25;7.00;99.90
23755;DHT22;12057;52.042;6.830;2022-11-12T23:59:25;7.00;99.90
